Time;durP1;ratioP1;P1;durP2;ratioP2;P2;SDS_P1;SDS_P2;PMS_P1;PMS_P2;Temp;Humidity;BMP_temperature;BMP_pressure;BME280_temperature;BME280_humidity;BME280_pressure;Samples;Min_cycle;Max_cycle;Signal;HPM_P1;HPM_P2
2022/10/02 00:06:20;;;;;;;0.85;0.17;;;;;;;11.38;100.00;98280.22;18236569;32;20088;-63
2022/10/02 00:16:28;;;;;;;0.45;0.25;;;;;;;11.41;100.00;98284.31;18237159;32;20109;-63
2022/10/02 00:26:41;;;;;;;1.20;0.30;;;;;;;11.47;100.00;98284.09;18236910;32;20438;-63
2022/10/02 00:36:56;;;;;;;0.40;0.20;;;;;;;11.49;100.00;98292.75;18236351;32;20080;-63
2022/10/02 00:47:31;;;;;;;2.28;0.40;;;;;;;11.53;100.00;98306.59;18236093;32;20062;-63
2022/10/02 00:57:38;;;;;;;0.55;0.40;;;;;;;11.57;100.00;98326.66;18297606;32;20581;-63
2022/10/02 01:07:44;;;;;;;0.75;0.52;;;;;;;11.70;100.00;98309.97;18296723;32;20410;-63
2022/10/02 01:17:51;;;;;;;0.65;0.40;;;;;;;11.76;100.00;98310.81;18296892;32;20097;-63
2022/10/02 01:27:53;;;;;;;1.02;0.52;;;;;;;11.81;100.00;98308.13;18268695;32;20124;-63
2022/10/02 01:37:58;;;;;;;0.98;0.60;;;;;;;11.85;100.00;98311.94;18233532;32;20442;-63
2022/10/02 01:48:09;;;;;;;0.70;0.47;;;;;;;11.90;100.00;98299.50;18233273;32;20057;-63
2022/10/02 01:58:44;;;;;;;1.15;0.70;;;;;;;11.94;100.00;98308.75;18232483;32;20098;-63
2022/10/02 02:09:05;;;;;;;1.37;1.00;;;;;;;12.06;100.00;98306.66;18232237;32;20351;-63
2022/10/02 02:19:22;;;;;;;0.90;0.60;;;;;;;12.12;100.00;98312.91;18232483;32;20471;-63
2022/10/02 02:29:27;;;;;;;1.58;1.05;;;;;;;12.17;100.00;98323.78;18242499;32;20459;-63
2022/10/02 02:40:06;;;;;;;1.77;1.10;;;;;;;12.25;100.00;98314.31;18241899;32;20054;-63
2022/10/02 02:50:08;;;;;;;1.50;1.08;;;;;;;12.28;100.00;98336.31;18305394;32;20085;-63
2022/10/02 03:00:14;;;;;;;1.73;1.20;;;;;;;12.25;100.00;98330.59;18305018;32;20054;-63
2022/10/02 03:10:29;;;;;;;2.45;1.52;;;;;;;12.25;100.00;98325.16;18304633;32;20078;-63
2022/10/02 03:20:50;;;;;;;1.87;1.33;;;;;;;12.25;100.00;98319.75;18280545;32;20058;-63
2022/10/02 03:30:54;;;;;;;1.40;1.30;;;;;;;12.23;100.00;98317.28;18238561;32;20069;-63
2022/10/02 03:40:57;;;;;;;2.67;1.30;;;;;;;12.19;100.00;98311.56;18238521;32;20061;-63
2022/10/02 03:50:59;;;;;;;2.75;1.42;;;;;;;12.17;100.00;98285.84;18238170;32;20102;-63
2022/10/02 04:01:09;;;;;;;2.42;1.60;;;;;;;12.15;100.00;98299.63;18237973;32;20103;-63
2022/10/02 04:11:26;;;;;;;1.62;1.17;;;;;;;12.13;100.00;98290.97;18165398;32;20093;-63
2022/10/02 04:21:59;;;;;;;1.65;1.20;;;;;;;12.11;100.00;98282.25;18040829;32;20085;-63
2022/10/02 04:32:14;;;;;;;1.10;0.93;;;;;;;12.13;100.00;98287.44;18040225;32;20059;-63
2022/10/02 04:42:32;;;;;;;1.60;1.27;;;;;;;12.13;100.00;98279.31;18082344;32;20078;-63
2022/10/02 04:52:50;;;;;;;2.28;1.02;;;;;;;12.12;100.00;98270.34;18133410;32;20082;-63
2022/10/02 05:03:18;;;;;;;1.15;0.95;;;;;;;12.10;100.00;98260.84;18235685;32;20034;-63
2022/10/02 05:13:48;;;;;;;1.20;1.10;;;;;;;12.09;100.00;98254.63;18234956;32;20055;-63
2022/10/02 05:24:10;;;;;;;1.48;0.98;;;;;;;12.09;100.00;98246.50;18233236;32;20479;-63
2022/10/02 05:34:53;;;;;;;0.90;0.60;;;;;;;12.00;100.00;98248.06;18234047;32;20050;-63
2022/10/02 05:45:19;;;;;;;0.60;0.50;;;;;;;11.96;100.00;98247.81;18282782;32;20073;-63
2022/10/02 05:55:33;;;;;;;2.95;0.77;;;;;;;11.99;100.00;98235.59;18294542;32;20057;-63
2022/10/02 06:05:59;;;;;;;1.00;0.47;;;;;;;12.05;100.00;98250.00;18294860;32;20073;-63
2022/10/02 06:16:11;;;;;;;0.90;0.65;;;;;;;12.15;100.00;98250.03;18273362;32;20051;-63
2022/10/02 06:26:35;;;;;;;0.95;0.68;;;;;;;12.37;100.00;98257.97;18230475;32;20155;-63
2022/10/02 06:36:46;;;;;;;1.30;0.70;;;;;;;12.60;100.00;98267.50;18229958;32;20431;-63
2022/10/02 06:47:05;;;;;;;0.75;0.45;;;;;;;12.80;100.00;98250.44;18230775;32;20077;-63
2022/10/02 06:57:52;;;;;;;1.45;0.32;;;;;;;13.08;100.00;98242.84;18229775;32;20070;-64
2022/10/02 07:08:13;;;;;;;0.85;0.30;;;;;;;13.49;100.00;98248.25;18223897;32;20084;-63
2022/10/02 07:18:43;;;;;;;0.30;0.20;;;;;;;13.81;100.00;98238.91;18230563;32;20252;-63
2022/10/02 07:29:04;;;;;;;0.50;0.40;;;;;;;14.09;100.00;98255.69;18229916;32;20468;-64
2022/10/02 07:39:25;;;;;;;0.43;0.20;;;;;;;14.43;100.00;98246.00;18231183;32;20082;-61
2022/10/02 07:50:00;;;;;;;0.50;0.10;;;;;;;14.80;100.00;98245.53;18228692;32;20081;-61
2022/10/02 08:00:17;;;;;;;0.10;0.10;;;;;;;15.01;100.00;98248.09;18228720;32;20122;-61
2022/10/02 08:10:25;;;;;;;0.35;0.13;;;;;;;15.10;100.00;98254.53;18228183;32;20359;-63
2022/10/02 08:20:35;;;;;;;0.10;0.00;;;;;;;15.38;100.00;98255.66;18172060;32;20062;-63
2022/10/02 08:30:38;;;;;;;0.05;0.00;;;;;;;15.71;100.00;98258.59;18172899;32;20050;-63
2022/10/02 08:41:17;;;;;;;0.00;0.00;;;;;;;15.89;100.00;98262.50;18172035;32;20089;-61
2022/10/02 08:51:43;;;;;;;0.00;0.00;;;;;;;16.25;100.00;98253.91;18177477;32;20582;-61
2022/10/02 09:01:49;;;;;;;0.52;0.13;;;;;;;16.37;100.00;98269.03;18225952;32;20078;-61
2022/10/02 09:12:09;;;;;;;0.80;0.00;;;;;;;16.45;100.00;98284.75;18225423;32;20074;-61
2022/10/02 09:22:44;;;;;;;0.00;0.00;;;;;;;16.59;100.00;98271.19;18170904;32;20418;-61
2022/10/02 09:33:01;;;;;;;0.20;0.10;;;;;;;16.78;100.00;98263.00;18160670;32;20139;-61
2022/10/02 09:43:20;;;;;;;0.00;0.00;;;;;;;17.43;100.00;98256.78;18160999;32;20090;-62
2022/10/02 09:53:39;;;;;;;0.10;0.10;;;;;;;18.19;100.00;98263.81;18216535;32;20107;-61
2022/10/02 10:04:24;;;;;;;0.20;0.10;;;;;;;18.36;100.00;98276.88;18198894;32;20446;-62
2022/10/02 10:15:21;;;;;;;0.20;0.20;;;;;;;18.69;100.00;98262.22;18167674;32;20072;-61
2022/10/02 10:25:50;;;;;;;0.10;0.10;;;;;;;18.75;100.00;98266.47;18167677;32;20094;-61
2022/10/02 10:46:58;;;;;;;0.65;0.10;;;;;;;19.20;100.00;98249.22;18104837;32;20093;-61
2022/10/02 10:57:11;;;;;;;0.45;0.10;;;;;;;19.41;100.00;98249.53;18351314;32;20555;-62
2022/10/02 11:07:34;;;;;;;0.77;0.20;;;;;;;19.38;100.00;98245.50;18432884;32;20114;-62
2022/10/02 11:17:43;;;;;;;0.10;0.10;;;;;;;19.63;100.00;98235.75;18434568;32;20061;-62
2022/10/02 11:28:20;;;;;;;1.55;0.20;;;;;;;19.84;100.00;98227.00;18440888;32;20510;-62
2022/10/02 11:38:50;;;;;;;0.80;0.25;;;;;;;20.16;100.00;98219.50;18438999;32;20076;-61
2022/10/02 11:49:01;;;;;;;0.30;0.30;;;;;;;20.13;100.00;98214.62;18439373;32;20120;-61
2022/10/02 11:59:32;;;;;;;0.35;0.10;;;;;;;20.29;100.00;98204.81;18238113;32;20106;-62
2022/10/02 12:10:04;;;;;;;0.50;0.20;;;;;;;20.86;100.00;98218.75;18237593;32;20454;-62
2022/10/02 12:31:15;;;;;;;0.20;0.17;;;;;;;21.41;93.26;98226.28;17918431;33;20080;-62
2022/10/02 12:41:39;;;;;;;0.22;0.15;;;;;;;20.76;88.29;98228.97;17917923;33;20076;-61
2022/10/02 12:52:00;;;;;;;0.10;0.00;;;;;;;20.52;88.91;98221.16;17999597;32;20394;-62
2022/10/02 13:02:15;;;;;;;2.37;0.20;;;;;;;20.03;90.26;98214.97;18219939;32;20157;-62
2022/10/02 13:12:20;;;;;;;2.97;0.20;;;;;;;20.03;90.52;98214.97;18234605;32;20054;-61
2022/10/02 13:22:46;;;;;;;1.02;0.30;;;;;;;20.18;88.42;98228.22;18234909;32;20046;-62
2022/10/02 13:33:04;;;;;;;0.55;0.10;;;;;;;19.98;88.71;98230.44;18233591;32;20106;-61
2022/10/02 13:43:35;;;;;;;0.60;0.30;;;;;;;19.54;88.41;98251.41;18233433;32;20062;-61
2022/10/02 13:53:56;;;;;;;2.45;0.50;;;;;;;19.19;90.85;98264.88;18160219;32;20085;-61
2022/10/02 14:04:27;;;;;;;0.77;0.30;;;;;;;18.78;87.53;98244.72;18160624;32;20071;-61
2022/10/02 14:14:41;;;;;;;1.92;0.43;;;;;;;18.06;92.57;98240.00;18159277;32;20067;-61
2022/10/02 14:25:14;;;;;;;1.42;0.50;;;;;;;17.53;94.74;98228.44;18177007;32;20106;-62
2022/10/02 14:35:28;;;;;;;0.80;0.30;;;;;;;17.34;97.49;98203.09;18231233;32;20081;-64
2022/10/02 14:45:43;;;;;;;0.60;0.30;;;;;;;17.26;98.10;98229.19;18231056;32;20103;-64
2022/10/02 14:56:15;;;;;;;2.75;0.60;;;;;;;17.69;95.40;98231.69;18230218;32;20449;-61
2022/10/02 15:06:22;;;;;;;1.25;0.30;;;;;;;17.79;88.35;98241.63;18230096;32;20106;-63
2022/10/02 15:27:13;;;;;;;0.95;0.35;;;;;;;18.16;90.06;98242.53;18229674;32;20084;-62
2022/10/02 15:37:33;;;;;;;2.35;0.60;;;;;;;18.09;87.33;98242.16;18239329;32;20062;-61
2022/10/02 15:47:51;;;;;;;1.85;0.40;;;;;;;17.83;88.25;98255.47;18238932;32;20098;-64
2022/10/02 15:58:16;;;;;;;0.82;0.30;;;;;;;17.47;86.76;98273.38;18237973;32;20066;-61
2022/10/02 16:08:26;;;;;;;2.60;0.52;;;;;;;17.19;89.09;98276.03;18238297;32;20057;-64
2022/10/02 16:18:49;;;;;;;4.95;0.30;;;;;;;16.87;93.34;98277.59;18237397;32;20058;-63
2022/10/02 16:29:11;;;;;;;0.40;0.30;;;;;;;16.66;97.17;98282.53;18235932;32;20414;-63
2022/10/02 16:39:39;;;;;;;0.47;0.10;;;;;;;16.41;98.90;98294.63;18235444;32;20058;-64
2022/10/02 16:49:50;;;;;;;4.12;0.95;;;;;;;16.21;100.00;98296.53;18236041;32;20431;-63
2022/10/02 17:00:23;;;;;;;1.90;0.50;;;;;;;15.79;100.00;98308.13;18234749;32;20072;-63
2022/10/02 17:10:39;;;;;;;1.40;0.37;;;;;;;15.37;100.00;98308.50;18235375;32;20370;-63
2022/10/02 17:20:50;;;;;;;4.37;0.50;;;;;;;15.13;100.00;98305.72;18233845;32;20066;-63
2022/10/02 17:30:56;;;;;;;3.85;0.30;;;;;;;14.98;100.00;98289.47;18234411;32;20055;-63
2022/10/02 17:41:11;;;;;;;0.85;0.47;;;;;;;14.78;100.00;98293.97;18161301;32;20071;-63
2022/10/02 17:51:44;;;;;;;2.92;0.40;;;;;;;14.66;100.00;98331.63;18160138;32;20154;-63
2022/10/02 18:02:25;;;;;;;2.05;0.32;;;;;;;14.57;100.00;98340.34;18160918;32;20078;-63
2022/10/02 18:12:38;;;;;;;3.45;0.30;;;;;;;14.49;100.00;98346.37;18218200;32;20110;-63
2022/10/02 18:22:59;;;;;;;0.20;0.17;;;;;;;14.51;100.00;98341.47;18232033;32;20370;-64
2022/10/02 18:33:42;;;;;;;1.17;0.30;;;;;;;14.54;100.00;98368.13;18231267;32;20062;-63
2022/10/02 18:44:08;;;;;;;0.40;0.30;;;;;;;14.60;100.00;98340.88;18229671;32;20472;-64
2022/10/02 18:54:20;;;;;;;1.15;0.30;;;;;;;14.60;100.00;98310.94;18095956;32;20595;-63
2022/10/02 19:04:44;;;;;;;1.08;0.30;;;;;;;14.60;100.00;98303.59;18087674;32;20486;-63
2022/10/02 19:14:47;;;;;;;0.83;0.30;;;;;;;14.68;100.00;98338.41;18094110;32;20383;-64
2022/10/02 19:25:02;;;;;;;0.62;0.20;;;;;;;14.80;100.00;98357.16;18132082;32;20072;-64
2022/10/02 19:35:14;;;;;;;0.60;0.17;;;;;;;14.67;100.00;98339.50;18238021;32;20071;-63
2022/10/02 19:45:25;;;;;;;1.85;0.43;;;;;;;14.61;100.00;98354.22;18238264;32;20072;-64
2022/10/02 19:55:37;;;;;;;2.53;0.35;;;;;;;14.60;100.00;98357.22;18238239;32;20351;-63
2022/10/02 20:05:41;;;;;;;0.88;0.17;;;;;;;14.56;100.00;98354.22;18237947;32;20080;-64
2022/10/02 20:26:26;;;;;;;3.37;0.20;;;;;;;14.48;100.00;98362.97;18165248;32;20067;-64
2022/10/02 20:36:37;;;;;;;1.10;0.20;;;;;;;14.45;100.00;98375.22;18040658;32;20143;-64
2022/10/02 20:46:46;;;;;;;0.20;0.10;;;;;;;14.44;100.00;98376.31;18054535;32;20106;-64
2022/10/02 20:56:57;;;;;;;0.10;0.10;;;;;;;14.45;100.00;98391.56;18088509;32;20089;-64
2022/10/02 21:07:19;;;;;;;0.30;0.15;;;;;;;14.45;100.00;98390.75;18212312;32;20359;-64
2022/10/02 21:17:42;;;;;;;0.25;0.10;;;;;;;14.49;100.00;98398.06;18234838;32;20058;-64
2022/10/02 21:28:00;;;;;;;0.10;0.10;;;;;;;14.52;100.00;98413.03;18234410;32;20058;-64
2022/10/02 21:38:31;;;;;;;1.15;0.20;;;;;;;14.54;100.00;98422.53;18234191;32;20046;-64
2022/10/02 21:49:04;;;;;;;0.35;0.10;;;;;;;14.53;100.00;98428.28;18233034;32;20482;-63
2022/10/02 21:59:37;;;;;;;4.82;0.40;;;;;;;14.47;100.00;98424.75;18232522;32;20050;-64
2022/10/02 22:10:05;;;;;;;2.85;0.52;;;;;;;14.46;100.00;98425.84;18232533;32;20107;-64
2022/10/02 22:20:24;;;;;;;2.50;0.40;;;;;;;14.41;100.00;98439.44;18232164;32;20366;-63
2022/10/02 22:30:36;;;;;;;1.77;0.10;;;;;;;14.35;100.00;98446.00;18231809;32;20054;-63
2022/10/02 22:41:05;;;;;;;2.53;0.10;;;;;;;13.96;100.00;98471.06;18237271;32;20423;-64
2022/10/02 22:51:16;;;;;;;3.67;0.10;;;;;;;13.51;100.00;98471.59;18239903;32;20049;-64
2022/10/02 23:01:22;;;;;;;0.43;0.10;;;;;;;13.42;100.00;98478.63;18239764;32;20094;-63
2022/10/02 23:11:38;;;;;;;2.15;0.10;;;;;;;13.25;100.00;98500.59;18240646;32;20055;-64
2022/10/02 23:22:05;;;;;;;0.28;0.10;;;;;;;13.22;100.00;98499.22;18240090;32;20087;-63
2022/10/02 23:32:25;;;;;;;1.33;0.10;;;;;;;13.21;100.00;98516.59;18238455;32;20388;-63
2022/10/02 23:42:51;;;;;;;2.12;0.10;;;;;;;13.16;100.00;98522.00;18239272;32;20062;-63
2022/10/02 23:53:22;;;;;;;0.15;0.10;;;;;;;13.11;100.00;98511.09;18237606;32;20066;-63
